sensor_id;sensor_type;location;lat;lon;timestamp;P1;durP1;ratioP1;P2;durP2;ratioP2
28529;SDS011;15737;49.760;6.632;2022-09-09T00:00:58;0.90;;;0.70;;
28529;SDS011;15737;49.760;6.632;2022-09-09T00:03:43;3.00;;;0.80;;
28529;SDS011;15737;49.760;6.632;2022-09-09T00:06:24;1.13;;;0.73;;
28529;SDS011;15737;49.760;6.632;2022-09-09T00:09:02;1.90;;;0.70;;
28529;SDS011;15737;49.760;6.632;2022-09-09T00:11:51;1.47;;;0.80;;
28529;SDS011;15737;49.760;6.632;2022-09-09T00:14:26;0.80;;;0.80;;
28529;SDS011;15737;49.760;6.632;2022-09-09T00:17:04;1.37;;;0.97;;
28529;SDS011;15737;49.760;6.632;2022-09-09T00:19:39;2.13;;;1.00;;
28529;SDS011;15737;49.760;6.632;2022-09-09T00:22:17;2.30;;;0.80;;
28529;SDS011;15737;49.760;6.632;2022-09-09T00:24:46;1.37;;;0.83;;
28529;SDS011;15737;49.760;6.632;2022-09-09T00:29:53;0.97;;;0.60;;
28529;SDS011;15737;49.760;6.632;2022-09-09T00:32:22;4.07;;;1.30;;
28529;SDS011;15737;49.760;6.632;2022-09-09T00:34:50;2.03;;;0.97;;
28529;SDS011;15737;49.760;6.632;2022-09-09T00:37:19;2.73;;;1.00;;
28529;SDS011;15737;49.760;6.632;2022-09-09T00:39:47;5.37;;;0.90;;
28529;SDS011;15737;49.760;6.632;2022-09-09T00:45:01;3.83;;;0.87;;
28529;SDS011;15737;49.760;6.632;2022-09-09T00:56:03;0.40;;;0.40;;
28529;SDS011;15737;49.760;6.632;2022-09-09T00:58:48;0.90;;;0.60;;
28529;SDS011;15737;49.760;6.632;2022-09-09T01:01:26;3.03;;;1.00;;
28529;SDS011;15737;49.760;6.632;2022-09-09T01:03:52;1.77;;;0.90;;
28529;SDS011;15737;49.760;6.632;2022-09-09T01:06:36;0.70;;;0.70;;
28529;SDS011;15737;49.760;6.632;2022-09-09T01:14:43;0.97;;;0.70;;
28529;SDS011;15737;49.760;6.632;2022-09-09T01:28:45;3.43;;;0.70;;
28529;SDS011;15737;49.760;6.632;2022-09-09T01:31:21;2.73;;;0.80;;
28529;SDS011;15737;49.760;6.632;2022-09-09T01:33:52;1.87;;;0.70;;
28529;SDS011;15737;49.760;6.632;2022-09-09T01:36:23;1.53;;;0.80;;
28529;SDS011;15737;49.760;6.632;2022-09-09T01:38:56;1.03;;;0.60;;
28529;SDS011;15737;49.760;6.632;2022-09-09T01:41:22;5.43;;;0.80;;
28529;SDS011;15737;49.760;6.632;2022-09-09T01:43:48;0.73;;;0.60;;
28529;SDS011;15737;49.760;6.632;2022-09-09T01:46:14;2.67;;;0.80;;
28529;SDS011;15737;49.760;6.632;2022-09-09T01:48:40;2.43;;;0.60;;
28529;SDS011;15737;49.760;6.632;2022-09-09T01:51:08;0.77;;;0.60;;
28529;SDS011;15737;49.760;6.632;2022-09-09T01:53:35;1.20;;;0.50;;
28529;SDS011;15737;49.760;6.632;2022-09-09T01:56:03;0.97;;;0.57;;
28529;SDS011;15737;49.760;6.632;2022-09-09T01:58:40;1.70;;;0.67;;
28529;SDS011;15737;49.760;6.632;2022-09-09T02:01:11;1.30;;;0.50;;
28529;SDS011;15737;49.760;6.632;2022-09-09T02:03:58;2.87;;;0.93;;
28529;SDS011;15737;49.760;6.632;2022-09-09T02:06:35;1.50;;;0.50;;
28529;SDS011;15737;49.760;6.632;2022-09-09T02:09:04;2.17;;;0.60;;
28529;SDS011;15737;49.760;6.632;2022-09-09T02:11:32;1.73;;;0.50;;
28529;SDS011;15737;49.760;6.632;2022-09-09T02:16:56;0.93;;;0.57;;
28529;SDS011;15737;49.760;6.632;2022-09-09T02:19:29;1.07;;;0.60;;
28529;SDS011;15737;49.760;6.632;2022-09-09T02:21:59;1.30;;;0.60;;
28529;SDS011;15737;49.760;6.632;2022-09-09T02:24:26;5.70;;;0.90;;
28529;SDS011;15737;49.760;6.632;2022-09-09T02:26:54;1.90;;;0.63;;
28529;SDS011;15737;49.760;6.632;2022-09-09T02:29:27;4.73;;;0.70;;
28529;SDS011;15737;49.760;6.632;2022-09-09T02:31:57;2.03;;;0.53;;
28529;SDS011;15737;49.760;6.632;2022-09-09T02:34:28;1.07;;;0.50;;
28529;SDS011;15737;49.760;6.632;2022-09-09T02:36:56;0.90;;;0.60;;
28529;SDS011;15737;49.760;6.632;2022-09-09T02:39:24;1.37;;;0.70;;
28529;SDS011;15737;49.760;6.632;2022-09-09T02:41:50;1.20;;;0.60;;
28529;SDS011;15737;49.760;6.632;2022-09-09T02:44:17;3.13;;;0.60;;
28529;SDS011;15737;49.760;6.632;2022-09-09T02:46:47;2.87;;;1.00;;
28529;SDS011;15737;49.760;6.632;2022-09-09T02:55:39;2.47;;;0.70;;
28529;SDS011;15737;49.760;6.632;2022-09-09T02:58:10;0.57;;;0.40;;
28529;SDS011;15737;49.760;6.632;2022-09-09T03:00:42;5.03;;;0.70;;
28529;SDS011;15737;49.760;6.632;2022-09-09T03:03:09;1.40;;;0.60;;
28529;SDS011;15737;49.760;6.632;2022-09-09T03:05:35;3.90;;;0.87;;
28529;SDS011;15737;49.760;6.632;2022-09-09T03:08:01;0.63;;;0.50;;
28529;SDS011;15737;49.760;6.632;2022-09-09T03:10:27;0.93;;;0.53;;
28529;SDS011;15737;49.760;6.632;2022-09-09T03:12:52;1.70;;;0.60;;
28529;SDS011;15737;49.760;6.632;2022-09-09T03:15:18;2.90;;;0.80;;
28529;SDS011;15737;49.760;6.632;2022-09-09T03:17:43;3.00;;;0.70;;
28529;SDS011;15737;49.760;6.632;2022-09-09T03:20:09;2.13;;;0.97;;
28529;SDS011;15737;49.760;6.632;2022-09-09T03:22:35;1.07;;;0.70;;
28529;SDS011;15737;49.760;6.632;2022-09-09T03:25:00;2.97;;;0.90;;
28529;SDS011;15737;49.760;6.632;2022-09-09T03:27:27;3.27;;;0.87;;
28529;SDS011;15737;49.760;6.632;2022-09-09T03:29:53;3.33;;;0.80;;
28529;SDS011;15737;49.760;6.632;2022-09-09T03:32:19;2.50;;;0.77;;
28529;SDS011;15737;49.760;6.632;2022-09-09T03:34:47;3.10;;;0.73;;
28529;SDS011;15737;49.760;6.632;2022-09-09T03:37:14;1.37;;;0.63;;
28529;SDS011;15737;49.760;6.632;2022-09-09T03:39:40;2.30;;;0.70;;
28529;SDS011;15737;49.760;6.632;2022-09-09T03:42:09;0.77;;;0.40;;
28529;SDS011;15737;49.760;6.632;2022-09-09T03:44:37;2.13;;;0.73;;
28529;SDS011;15737;49.760;6.632;2022-09-09T03:47:02;2.77;;;0.80;;
28529;SDS011;15737;49.760;6.632;2022-09-09T03:49:28;3.40;;;0.93;;
28529;SDS011;15737;49.760;6.632;2022-09-09T03:51:54;2.40;;;0.77;;
28529;SDS011;15737;49.760;6.632;2022-09-09T03:54:22;1.63;;;0.43;;
28529;SDS011;15737;49.760;6.632;2022-09-09T03:56:48;8.30;;;0.80;;
28529;SDS011;15737;49.760;6.632;2022-09-09T03:59:14;3.27;;;0.80;;
28529;SDS011;15737;49.760;6.632;2022-09-09T04:01:39;2.17;;;0.80;;
28529;SDS011;15737;49.760;6.632;2022-09-09T04:04:05;6.07;;;0.77;;
28529;SDS011;15737;49.760;6.632;2022-09-09T04:06:30;2.07;;;0.70;;
28529;SDS011;15737;49.760;6.632;2022-09-09T04:08:56;5.87;;;0.70;;
28529;SDS011;15737;49.760;6.632;2022-09-09T04:11:21;1.60;;;0.40;;
28529;SDS011;15737;49.760;6.632;2022-09-09T04:13:47;1.60;;;0.47;;
28529;SDS011;15737;49.760;6.632;2022-09-09T04:16:14;2.70;;;0.90;;
28529;SDS011;15737;49.760;6.632;2022-09-09T04:18:40;5.07;;;0.80;;
28529;SDS011;15737;49.760;6.632;2022-09-09T04:21:06;3.90;;;0.77;;
28529;SDS011;15737;49.760;6.632;2022-09-09T04:23:32;2.50;;;1.00;;
28529;SDS011;15737;49.760;6.632;2022-09-09T04:25:59;1.27;;;0.50;;
28529;SDS011;15737;49.760;6.632;2022-09-09T04:28:27;1.30;;;0.90;;
28529;SDS011;15737;49.760;6.632;2022-09-09T04:30:54;4.27;;;1.30;;
28529;SDS011;15737;49.760;6.632;2022-09-09T04:33:23;6.00;;;1.10;;
28529;SDS011;15737;49.760;6.632;2022-09-09T04:35:51;3.13;;;0.87;;
28529;SDS011;15737;49.760;6.632;2022-09-09T04:38:20;2.33;;;0.67;;
28529;SDS011;15737;49.760;6.632;2022-09-09T04:40:48;2.53;;;0.80;;
28529;SDS011;15737;49.760;6.632;2022-09-09T04:43:14;4.47;;;0.80;;
28529;SDS011;15737;49.760;6.632;2022-09-09T04:45:40;3.77;;;0.70;;
28529;SDS011;15737;49.760;6.632;2022-09-09T04:48:07;5.57;;;0.80;;
28529;SDS011;15737;49.760;6.632;2022-09-09T04:50:33;3.97;;;0.97;;
28529;SDS011;15737;49.760;6.632;2022-09-09T04:53:02;3.80;;;0.90;;
28529;SDS011;15737;49.760;6.632;2022-09-09T04:55:28;5.30;;;1.07;;
28529;SDS011;15737;49.760;6.632;2022-09-09T04:57:55;5.73;;;0.90;;
28529;SDS011;15737;49.760;6.632;2022-09-09T05:00:21;3.83;;;0.80;;
28529;SDS011;15737;49.760;6.632;2022-09-09T05:02:47;1.53;;;0.67;;
28529;SDS011;15737;49.760;6.632;2022-09-09T05:05:12;1.87;;;0.80;;
28529;SDS011;15737;49.760;6.632;2022-09-09T05:07:38;3.47;;;1.00;;
28529;SDS011;15737;49.760;6.632;2022-09-09T05:10:03;2.97;;;0.60;;
28529;SDS011;15737;49.760;6.632;2022-09-09T05:12:31;0.77;;;0.77;;
28529;SDS011;15737;49.760;6.632;2022-09-09T05:14:56;6.63;;;0.80;;
28529;SDS011;15737;49.760;6.632;2022-09-09T05:17:22;0.87;;;0.50;;
28529;SDS011;15737;49.760;6.632;2022-09-09T05:19:48;0.73;;;0.50;;
28529;SDS011;15737;49.760;6.632;2022-09-09T05:22:18;5.70;;;0.93;;
28529;SDS011;15737;49.760;6.632;2022-09-09T05:24:50;2.77;;;0.93;;
28529;SDS011;15737;49.760;6.632;2022-09-09T05:27:16;4.17;;;1.30;;
28529;SDS011;15737;49.760;6.632;2022-09-09T05:29:44;2.80;;;0.70;;
28529;SDS011;15737;49.760;6.632;2022-09-09T05:32:10;4.67;;;0.90;;
28529;SDS011;15737;49.760;6.632;2022-09-09T05:34:35;1.67;;;0.63;;
28529;SDS011;15737;49.760;6.632;2022-09-09T05:37:02;3.87;;;1.00;;
28529;SDS011;15737;49.760;6.632;2022-09-09T05:39:29;2.23;;;1.10;;
28529;SDS011;15737;49.760;6.632;2022-09-09T05:41:54;2.73;;;0.87;;
28529;SDS011;15737;49.760;6.632;2022-09-09T05:44:20;4.30;;;1.20;;
28529;SDS011;15737;49.760;6.632;2022-09-09T05:46:48;7.60;;;1.00;;
28529;SDS011;15737;49.760;6.632;2022-09-09T05:49:14;3.77;;;1.30;;
28529;SDS011;15737;49.760;6.632;2022-09-09T05:51:40;3.50;;;1.00;;
28529;SDS011;15737;49.760;6.632;2022-09-09T05:54:07;3.40;;;0.80;;
28529;SDS011;15737;49.760;6.632;2022-09-09T05:56:33;5.70;;;1.07;;
28529;SDS011;15737;49.760;6.632;2022-09-09T05:58:59;5.03;;;1.03;;
28529;SDS011;15737;49.760;6.632;2022-09-09T06:01:26;2.57;;;1.00;;
28529;SDS011;15737;49.760;6.632;2022-09-09T06:03:56;2.70;;;0.80;;
28529;SDS011;15737;49.760;6.632;2022-09-09T06:06:23;4.50;;;0.73;;
28529;SDS011;15737;49.760;6.632;2022-09-09T06:08:51;0.83;;;0.53;;
28529;SDS011;15737;49.760;6.632;2022-09-09T06:11:22;4.87;;;0.83;;
28529;SDS011;15737;49.760;6.632;2022-09-09T06:13:51;4.23;;;0.80;;
28529;SDS011;15737;49.760;6.632;2022-09-09T06:16:19;0.90;;;0.60;;
28529;SDS011;15737;49.760;6.632;2022-09-09T06:18:47;3.27;;;1.03;;
28529;SDS011;15737;49.760;6.632;2022-09-09T06:21:20;4.67;;;0.80;;
28529;SDS011;15737;49.760;6.632;2022-09-09T06:23:48;2.10;;;0.80;;
28529;SDS011;15737;49.760;6.632;2022-09-09T06:26:37;2.43;;;1.30;;
28529;SDS011;15737;49.760;6.632;2022-09-09T06:29:02;1.93;;;1.13;;
28529;SDS011;15737;49.760;6.632;2022-09-09T06:31:29;2.73;;;0.83;;
28529;SDS011;15737;49.760;6.632;2022-09-09T06:33:56;3.20;;;0.60;;
28529;SDS011;15737;49.760;6.632;2022-09-09T06:36:23;1.70;;;0.73;;
28529;SDS011;15737;49.760;6.632;2022-09-09T06:38:50;4.63;;;0.80;;
28529;SDS011;15737;49.760;6.632;2022-09-09T06:41:17;3.00;;;0.60;;
28529;SDS011;15737;49.760;6.632;2022-09-09T06:43:44;5.05;;;0.90;;
28529;SDS011;15737;49.760;6.632;2022-09-09T06:46:20;2.67;;;0.53;;
28529;SDS011;15737;49.760;6.632;2022-09-09T06:48:47;6.63;;;1.20;;
28529;SDS011;15737;49.760;6.632;2022-09-09T06:51:17;5.40;;;0.70;;
28529;SDS011;15737;49.760;6.632;2022-09-09T06:53:46;7.10;;;1.10;;
28529;SDS011;15737;49.760;6.632;2022-09-09T06:56:25;1.43;;;0.63;;
28529;SDS011;15737;49.760;6.632;2022-09-09T06:58:53;3.80;;;0.77;;
28529;SDS011;15737;49.760;6.632;2022-09-09T07:01:21;3.93;;;0.87;;
28529;SDS011;15737;49.760;6.632;2022-09-09T07:03:49;5.40;;;1.00;;
28529;SDS011;15737;49.760;6.632;2022-09-09T07:06:18;5.37;;;0.73;;
28529;SDS011;15737;49.760;6.632;2022-09-09T07:08:51;3.93;;;1.40;;
28529;SDS011;15737;49.760;6.632;2022-09-09T07:11:23;1.90;;;0.93;;
28529;SDS011;15737;49.760;6.632;2022-09-09T07:13:51;4.37;;;1.03;;
28529;SDS011;15737;49.760;6.632;2022-09-09T07:16:18;2.80;;;0.80;;
28529;SDS011;15737;49.760;6.632;2022-09-09T07:18:45;8.40;;;1.03;;
28529;SDS011;15737;49.760;6.632;2022-09-09T07:21:12;4.80;;;1.17;;
28529;SDS011;15737;49.760;6.632;2022-09-09T07:23:39;0.93;;;0.93;;
28529;SDS011;15737;49.760;6.632;2022-09-09T07:26:09;1.77;;;0.93;;
28529;SDS011;15737;49.760;6.632;2022-09-09T07:28:39;3.30;;;0.73;;
28529;SDS011;15737;49.760;6.632;2022-09-09T07:31:06;6.67;;;1.20;;
28529;SDS011;15737;49.760;6.632;2022-09-09T07:33:38;1.40;;;0.70;;
28529;SDS011;15737;49.760;6.632;2022-09-09T07:36:10;3.50;;;1.00;;
28529;SDS011;15737;49.760;6.632;2022-09-09T07:38:47;6.05;;;0.82;;
28529;SDS011;15737;49.760;6.632;2022-09-09T07:41:16;4.03;;;1.37;;
28529;SDS011;15737;49.760;6.632;2022-09-09T07:43:45;1.87;;;0.80;;
28529;SDS011;15737;49.760;6.632;2022-09-09T07:46:13;2.27;;;0.70;;
28529;SDS011;15737;49.760;6.632;2022-09-09T07:48:43;5.28;;;1.13;;
28529;SDS011;15737;49.760;6.632;2022-09-09T07:51:16;1.90;;;0.73;;
28529;SDS011;15737;49.760;6.632;2022-09-09T07:53:44;2.20;;;0.87;;
28529;SDS011;15737;49.760;6.632;2022-09-09T07:56:12;2.93;;;0.83;;
28529;SDS011;15737;49.760;6.632;2022-09-09T07:58:41;4.33;;;0.80;;
28529;SDS011;15737;49.760;6.632;2022-09-09T08:01:17;4.20;;;0.80;;
28529;SDS011;15737;49.760;6.632;2022-09-09T08:06:11;6.18;;;1.10;;
28529;SDS011;15737;49.760;6.632;2022-09-09T08:08:38;3.73;;;0.70;;
28529;SDS011;15737;49.760;6.632;2022-09-09T08:11:05;1.30;;;0.67;;
28529;SDS011;15737;49.760;6.632;2022-09-09T08:13:36;0.87;;;0.23;;
28529;SDS011;15737;49.760;6.632;2022-09-09T08:16:06;2.73;;;0.90;;
28529;SDS011;15737;49.760;6.632;2022-09-09T08:18:42;4.07;;;1.20;;
28529;SDS011;15737;49.760;6.632;2022-09-09T08:21:10;6.17;;;1.13;;
28529;SDS011;15737;49.760;6.632;2022-09-09T08:23:42;6.63;;;1.30;;
28529;SDS011;15737;49.760;6.632;2022-09-09T08:26:11;4.63;;;0.83;;
28529;SDS011;15737;49.760;6.632;2022-09-09T08:28:42;6.33;;;0.83;;
28529;SDS011;15737;49.760;6.632;2022-09-09T08:31:15;4.75;;;0.90;;
28529;SDS011;15737;49.760;6.632;2022-09-09T08:33:43;3.90;;;1.13;;
28529;SDS011;15737;49.760;6.632;2022-09-09T08:36:11;7.17;;;1.20;;
28529;SDS011;15737;49.760;6.632;2022-09-09T08:38:42;1.97;;;0.83;;
28529;SDS011;15737;49.760;6.632;2022-09-09T08:46:48;5.47;;;1.47;;
28529;SDS011;15737;49.760;6.632;2022-09-09T08:52:03;2.87;;;1.10;;
28529;SDS011;15737;49.760;6.632;2022-09-09T08:54:38;4.23;;;1.50;;
28529;SDS011;15737;49.760;6.632;2022-09-09T08:57:04;6.15;;;1.88;;
28529;SDS011;15737;49.760;6.632;2022-09-09T08:59:39;5.43;;;1.40;;
28529;SDS011;15737;49.760;6.632;2022-09-09T09:02:09;4.17;;;1.30;;
28529;SDS011;15737;49.760;6.632;2022-09-09T09:04:52;6.50;;;1.23;;
28529;SDS011;15737;49.760;6.632;2022-09-09T09:07:42;4.10;;;1.30;;
28529;SDS011;15737;49.760;6.632;2022-09-09T09:13:01;5.40;;;1.23;;
28529;SDS011;15737;49.760;6.632;2022-09-09T09:15:31;2.00;;;1.17;;
28529;SDS011;15737;49.760;6.632;2022-09-09T09:18:03;6.57;;;1.20;;
28529;SDS011;15737;49.760;6.632;2022-09-09T09:20:52;1.93;;;0.77;;
28529;SDS011;15737;49.760;6.632;2022-09-09T09:23:21;5.77;;;1.20;;
28529;SDS011;15737;49.760;6.632;2022-09-09T09:25:49;5.77;;;1.13;;
28529;SDS011;15737;49.760;6.632;2022-09-09T09:28:18;3.93;;;1.00;;
28529;SDS011;15737;49.760;6.632;2022-09-09T09:33:23;6.30;;;0.83;;
28529;SDS011;15737;49.760;6.632;2022-09-09T09:35:54;1.40;;;0.70;;
28529;SDS011;15737;49.760;6.632;2022-09-09T09:38:21;2.50;;;0.60;;
28529;SDS011;15737;49.760;6.632;2022-09-09T09:40:52;2.28;;;1.10;;
28529;SDS011;15737;49.760;6.632;2022-09-09T09:43:29;4.38;;;0.80;;
28529;SDS011;15737;49.760;6.632;2022-09-09T09:45:59;6.47;;;1.23;;
28529;SDS011;15737;49.760;6.632;2022-09-09T09:48:25;7.83;;;1.30;;
28529;SDS011;15737;49.760;6.632;2022-09-09T09:50:53;2.22;;;0.90;;
28529;SDS011;15737;49.760;6.632;2022-09-09T09:53:29;4.40;;;0.98;;
28529;SDS011;15737;49.760;6.632;2022-09-09T09:55:59;2.42;;;0.88;;
28529;SDS011;15737;49.760;6.632;2022-09-09T09:58:30;1.88;;;0.50;;
28529;SDS011;15737;49.760;6.632;2022-09-09T10:00:58;0.63;;;0.40;;
28529;SDS011;15737;49.760;6.632;2022-09-09T10:03:29;2.45;;;0.73;;
28529;SDS011;15737;49.760;6.632;2022-09-09T10:05:56;1.63;;;0.70;;
28529;SDS011;15737;49.760;6.632;2022-09-09T10:08:23;2.05;;;0.98;;
28529;SDS011;15737;49.760;6.632;2022-09-09T10:19:20;3.35;;;1.80;;
28529;SDS011;15737;49.760;6.632;2022-09-09T10:22:02;3.50;;;2.90;;
28529;SDS011;15737;49.760;6.632;2022-09-09T10:24:47;2.50;;;2.30;;
28529;SDS011;15737;49.760;6.632;2022-09-09T10:27:51;12.63;;;11.95;;
28529;SDS011;15737;49.760;6.632;2022-09-09T10:30:44;12.15;;;11.40;;
28529;SDS011;15737;49.760;6.632;2022-09-09T10:36:23;26.05;;;24.65;;
28529;SDS011;15737;49.760;6.632;2022-09-09T10:41:42;1.73;;;1.63;;
28529;SDS011;15737;49.760;6.632;2022-09-09T10:47:38;5.15;;;4.82;;
28529;SDS011;15737;49.760;6.632;2022-09-09T10:56:16;52.25;;;49.38;;
28529;SDS011;15737;49.760;6.632;2022-09-09T11:01:52;21.98;;;20.42;;
28529;SDS011;15737;49.760;6.632;2022-09-09T11:04:31;12.65;;;11.95;;
28529;SDS011;15737;49.760;6.632;2022-09-09T11:07:05;4.40;;;4.10;;
28529;SDS011;15737;49.760;6.632;2022-09-09T11:09:44;3.72;;;3.38;;
28529;SDS011;15737;49.760;6.632;2022-09-09T11:12:18;3.72;;;1.65;;
28529;SDS011;15737;49.760;6.632;2022-09-09T11:14:52;9.05;;;3.28;;
28529;SDS011;15737;49.760;6.632;2022-09-09T11:17:33;2.33;;;1.10;;
28529;SDS011;15737;49.760;6.632;2022-09-09T11:20:05;2.53;;;1.10;;
28529;SDS011;15737;49.760;6.632;2022-09-09T11:22:37;1.48;;;0.73;;
28529;SDS011;15737;49.760;6.632;2022-09-09T11:25:17;1.80;;;0.60;;
28529;SDS011;15737;49.760;6.632;2022-09-09T11:28:01;1.33;;;0.70;;
28529;SDS011;15737;49.760;6.632;2022-09-09T11:38:58;3.72;;;3.53;;
28529;SDS011;15737;49.760;6.632;2022-09-09T11:41:45;4.90;;;4.60;;
28529;SDS011;15737;49.760;6.632;2022-09-09T11:44:11;3.42;;;3.13;;
28529;SDS011;15737;49.760;6.632;2022-09-09T11:46:41;4.03;;;1.83;;
28529;SDS011;15737;49.760;6.632;2022-09-09T11:49:26;3.35;;;1.00;;
28529;SDS011;15737;49.760;6.632;2022-09-09T11:52:36;1.10;;;0.75;;
28529;SDS011;15737;49.760;6.632;2022-09-09T11:55:11;1.02;;;1.02;;
28529;SDS011;15737;49.760;6.632;2022-09-09T11:58:01;13.88;;;13.13;;
28529;SDS011;15737;49.760;6.632;2022-09-09T12:03:05;2.40;;;0.70;;
28529;SDS011;15737;49.760;6.632;2022-09-09T12:05:51;0.60;;;0.60;;
28529;SDS011;15737;49.760;6.632;2022-09-09T12:08:19;41.83;;;39.67;;
28529;SDS011;15737;49.760;6.632;2022-09-09T12:10:53;25.35;;;24.13;;
28529;SDS011;15737;49.760;6.632;2022-09-09T12:13:25;99.47;;;94.97;;
28529;SDS011;15737;49.760;6.632;2022-09-09T12:15:55;65.93;;;62.70;;
28529;SDS011;15737;49.760;6.632;2022-09-09T12:18:31;164.63;;;154.10;;
28529;SDS011;15737;49.760;6.632;2022-09-09T12:20:59;76.10;;;72.30;;
28529;SDS011;15737;49.760;6.632;2022-09-09T12:24:02;102.60;;;97.35;;
28529;SDS011;15737;49.760;6.632;2022-09-09T12:37:14;128.15;;;121.80;;
28529;SDS011;15737;49.760;6.632;2022-09-09T12:40:00;77.82;;;73.93;;
28529;SDS011;15737;49.760;6.632;2022-09-09T12:42:28;27.55;;;25.95;;
28529;SDS011;15737;49.760;6.632;2022-09-09T12:44:55;18.60;;;17.70;;
28529;SDS011;15737;49.760;6.632;2022-09-09T12:47:24;17.98;;;17.10;;
28529;SDS011;15737;49.760;6.632;2022-09-09T12:50:21;3.60;;;3.42;;
28529;SDS011;15737;49.760;6.632;2022-09-09T12:52:50;5.13;;;4.72;;
28529;SDS011;15737;49.760;6.632;2022-09-09T12:55:23;13.52;;;12.73;;
28529;SDS011;15737;49.760;6.632;2022-09-09T12:57:55;2.55;;;2.38;;
28529;SDS011;15737;49.760;6.632;2022-09-09T13:00:22;3.42;;;3.22;;
28529;SDS011;15737;49.760;6.632;2022-09-09T13:05:16;116.45;;;110.32;;
28529;SDS011;15737;49.760;6.632;2022-09-09T13:07:43;134.45;;;128.05;;
28529;SDS011;15737;49.760;6.632;2022-09-09T13:10:13;137.40;;;130.88;;
28529;SDS011;15737;49.760;6.632;2022-09-09T13:12:40;107.82;;;102.53;;
28529;SDS011;15737;49.760;6.632;2022-09-09T13:15:13;72.13;;;68.57;;
28529;SDS011;15737;49.760;6.632;2022-09-09T13:17:49;209.75;;;197.90;;
28529;SDS011;15737;49.760;6.632;2022-09-09T13:20:17;91.00;;;86.60;;
28529;SDS011;15737;49.760;6.632;2022-09-09T13:22:44;71.38;;;67.85;;
28529;SDS011;15737;49.760;6.632;2022-09-09T13:27:38;43.88;;;41.72;;
28529;SDS011;15737;49.760;6.632;2022-09-09T13:35:51;150.52;;;143.02;;
28529;SDS011;15737;49.760;6.632;2022-09-09T13:38:22;114.68;;;109.07;;
28529;SDS011;15737;49.760;6.632;2022-09-09T13:40:55;133.15;;;126.60;;
28529;SDS011;15737;49.760;6.632;2022-09-09T13:43:24;135.20;;;128.75;;
28529;SDS011;15737;49.760;6.632;2022-09-09T13:45:55;58.80;;;55.85;;
28529;SDS011;15737;49.760;6.632;2022-09-09T13:48:26;27.33;;;25.95;;
28529;SDS011;15737;49.760;6.632;2022-09-09T13:50:56;12.38;;;11.68;;
28529;SDS011;15737;49.760;6.632;2022-09-09T13:53:25;39.10;;;37.17;;
28529;SDS011;15737;49.760;6.632;2022-09-09T13:55:51;2.53;;;2.10;;
28529;SDS011;15737;49.760;6.632;2022-09-09T13:58:17;1.27;;;1.05;;
28529;SDS011;15737;49.760;6.632;2022-09-09T14:00:44;1.30;;;0.70;;
28529;SDS011;15737;49.760;6.632;2022-09-09T14:03:10;195.18;;;181.73;;
28529;SDS011;15737;49.760;6.632;2022-09-09T14:05:35;49.28;;;45.88;;
28529;SDS011;15737;49.760;6.632;2022-09-09T14:08:06;30.05;;;28.77;;
28529;SDS011;15737;49.760;6.632;2022-09-09T14:10:32;1.50;;;0.60;;
28529;SDS011;15737;49.760;6.632;2022-09-09T14:13:00;1.20;;;0.47;;
28529;SDS011;15737;49.760;6.632;2022-09-09T14:15:26;1.40;;;0.47;;
28529;SDS011;15737;49.760;6.632;2022-09-09T14:17:52;0.90;;;0.40;;
28529;SDS011;15737;49.760;6.632;2022-09-09T14:20:17;3.70;;;0.60;;
28529;SDS011;15737;49.760;6.632;2022-09-09T14:22:44;2.50;;;0.30;;
28529;SDS011;15737;49.760;6.632;2022-09-09T14:25:09;2.07;;;0.57;;
28529;SDS011;15737;49.760;6.632;2022-09-09T14:27:36;1.90;;;0.60;;
28529;SDS011;15737;49.760;6.632;2022-09-09T14:30:03;3.83;;;0.73;;
28529;SDS011;15737;49.760;6.632;2022-09-09T14:32:29;7.40;;;0.40;;
28529;SDS011;15737;49.760;6.632;2022-09-09T14:34:54;2.00;;;0.30;;
28529;SDS011;15737;49.760;6.632;2022-09-09T14:37:20;3.10;;;0.47;;
28529;SDS011;15737;49.760;6.632;2022-09-09T14:39:46;0.67;;;0.40;;
28529;SDS011;15737;49.760;6.632;2022-09-09T14:42:12;2.93;;;0.40;;
28529;SDS011;15737;49.760;6.632;2022-09-09T14:44:38;0.50;;;0.50;;
28529;SDS011;15737;49.760;6.632;2022-09-09T14:47:07;0.60;;;0.40;;
28529;SDS011;15737;49.760;6.632;2022-09-09T14:49:36;4.63;;;0.27;;
28529;SDS011;15737;49.760;6.632;2022-09-09T14:52:03;0.97;;;0.50;;
28529;SDS011;15737;49.760;6.632;2022-09-09T14:54:29;0.60;;;0.47;;
28529;SDS011;15737;49.760;6.632;2022-09-09T14:56:56;1.00;;;0.50;;
28529;SDS011;15737;49.760;6.632;2022-09-09T14:59:22;1.30;;;0.53;;
28529;SDS011;15737;49.760;6.632;2022-09-09T15:01:48;2.10;;;0.53;;
28529;SDS011;15737;49.760;6.632;2022-09-09T15:04:14;3.03;;;0.60;;
28529;SDS011;15737;49.760;6.632;2022-09-09T15:06:40;1.43;;;0.60;;
28529;SDS011;15737;49.760;6.632;2022-09-09T15:09:07;0.57;;;0.40;;
28529;SDS011;15737;49.760;6.632;2022-09-09T15:11:34;4.20;;;0.53;;
28529;SDS011;15737;49.760;6.632;2022-09-09T15:14:07;1.70;;;0.67;;
28529;SDS011;15737;49.760;6.632;2022-09-09T15:16:33;2.03;;;0.63;;
28529;SDS011;15737;49.760;6.632;2022-09-09T15:19:00;1.00;;;0.50;;
28529;SDS011;15737;49.760;6.632;2022-09-09T15:21:27;0.50;;;0.50;;
28529;SDS011;15737;49.760;6.632;2022-09-09T15:23:55;1.17;;;0.40;;
28529;SDS011;15737;49.760;6.632;2022-09-09T15:26:21;0.50;;;0.50;;
28529;SDS011;15737;49.760;6.632;2022-09-09T15:28:47;2.10;;;0.60;;
28529;SDS011;15737;49.760;6.632;2022-09-09T15:31:15;1.63;;;0.80;;
28529;SDS011;15737;49.760;6.632;2022-09-09T15:33:49;2.07;;;0.60;;
28529;SDS011;15737;49.760;6.632;2022-09-09T15:36:19;2.10;;;0.60;;
28529;SDS011;15737;49.760;6.632;2022-09-09T15:38:47;1.03;;;0.57;;
28529;SDS011;15737;49.760;6.632;2022-09-09T15:41:13;2.00;;;0.70;;
28529;SDS011;15737;49.760;6.632;2022-09-09T15:43:43;1.63;;;0.60;;
28529;SDS011;15737;49.760;6.632;2022-09-09T15:48:42;1.70;;;0.60;;
28529;SDS011;15737;49.760;6.632;2022-09-09T15:51:11;4.23;;;0.70;;
28529;SDS011;15737;49.760;6.632;2022-09-09T15:53:37;22.63;;;1.60;;
28529;SDS011;15737;49.760;6.632;2022-09-09T15:56:04;3.17;;;0.77;;
28529;SDS011;15737;49.760;6.632;2022-09-09T15:58:31;47.63;;;2.30;;
28529;SDS011;15737;49.760;6.632;2022-09-09T16:01:01;3.07;;;0.90;;
28529;SDS011;15737;49.760;6.632;2022-09-09T16:03:29;4.43;;;1.58;;
28529;SDS011;15737;49.760;6.632;2022-09-09T16:05:58;6.60;;;2.40;;
28529;SDS011;15737;49.760;6.632;2022-09-09T16:08:23;6.07;;;1.53;;
28529;SDS011;15737;49.760;6.632;2022-09-09T16:10:49;5.10;;;0.90;;
28529;SDS011;15737;49.760;6.632;2022-09-09T16:13:15;3.03;;;0.63;;
28529;SDS011;15737;49.760;6.632;2022-09-09T16:15:41;3.77;;;0.73;;
28529;SDS011;15737;49.760;6.632;2022-09-09T16:18:07;1.07;;;0.70;;
28529;SDS011;15737;49.760;6.632;2022-09-09T16:20:32;2.63;;;0.73;;
28529;SDS011;15737;49.760;6.632;2022-09-09T16:22:58;1.37;;;0.73;;
28529;SDS011;15737;49.760;6.632;2022-09-09T16:25:26;2.53;;;1.10;;
28529;SDS011;15737;49.760;6.632;2022-09-09T16:27:52;2.27;;;0.80;;
28529;SDS011;15737;49.760;6.632;2022-09-09T16:30:18;6.63;;;1.23;;
28529;SDS011;15737;49.760;6.632;2022-09-09T16:32:43;7.13;;;1.20;;
28529;SDS011;15737;49.760;6.632;2022-09-09T16:35:09;3.90;;;1.13;;
28529;SDS011;15737;49.760;6.632;2022-09-09T16:37:34;8.73;;;0.97;;
28529;SDS011;15737;49.760;6.632;2022-09-09T16:40:00;5.03;;;1.10;;
28529;SDS011;15737;49.760;6.632;2022-09-09T16:42:28;2.13;;;1.03;;
28529;SDS011;15737;49.760;6.632;2022-09-09T16:44:53;1.10;;;1.00;;
28529;SDS011;15737;49.760;6.632;2022-09-09T16:47:19;2.27;;;0.90;;
28529;SDS011;15737;49.760;6.632;2022-09-09T16:49:44;4.93;;;1.10;;
28529;SDS011;15737;49.760;6.632;2022-09-09T16:52:10;8.93;;;1.33;;
28529;SDS011;15737;49.760;6.632;2022-09-09T16:54:35;7.27;;;1.50;;
28529;SDS011;15737;49.760;6.632;2022-09-09T16:57:01;3.23;;;0.97;;